Terminal Aerodrome Forecast
Issued by NWS Brownsville, TX

Current Version | Previous Version | Text Only | Print | Product List | Glossary Off
Versions: 1 2 3 4 5 6 7 8 9 10 11 12 13 14 15 16 17 18

000
FTUS44 KBRO 200500
TAFBRO
TAF
KBRO 200536Z 2006/2106 15004KT P6SM BKN017
     FM201500 13006KT P6SM VCSH BKN020 OVC250
      TEMPO 2015/2018 5SM -TSRA BKN015CB
     FM201800 11008KT P6SM VCSH SCT030 BKN250
      TEMPO 2018/2022 5SM -TSRA BKN015CB
     FM210000 10005KT P6SM VCSH SCT030 OVC250 PROB30 2100/2106 P6SM
      -SHRA BKN025=

USA.gov is the U.S. government's official web portal to all federal, state and local government web resources and services.